Daisinmaru No.11 — JK5352 — position and weather

sailwx.info

Track history (hours):
 
Tides and Currents Weather Stations Pressure Air Temp Water Temp Dewpoint Dewpoint Depression Visibility Wind Speed Wind Dir Waves Ship Positions

Daisinmaru No.11

Last reported at 2015-Mar-04 02:25 UTC. Time now 2015-Mar-04 12:48 UTC.
Position N 35°30' E 139°53'.

Length 52 m; draft 5.2 m.

Type: Cargo ship. MMSI: 431000667.

Date/timePositionNaut miles runAvg speedWind from/ knotsBaromVisibWave heightAir tempDewpointWater temp
2015-Mar-04 02:25N 35°30' E 139°53'8 9.2
2015-Mar-04 01:34N 35°29' E 139°43'0 0.2
2015-Mar-04 00:34N 35°29' E 139°43'0 0.0
2015-Mar-03 23:34N 35°29' E 139°43'2 2.1
2015-Mar-03 22:34N 35°30' E 139°45'1010.4
2015-Mar-03 21:34N 35°29' E 139°58'3 0.1
2015-Mar-02 00:33N 35°29' E 139°54'9 8.8
2015-Mar-01 23:33N 35°27' E 139°44'4 4.2
2015-Mar-01 22:33N 35°28' E 139°39'  
2015-Feb-27 09:08N 35°28' E 139°39'3 5.6
2015-Feb-27 08:33N 35°27' E 139°42'8 7.8
2015-Feb-27 07:30N 35°29' E 139°52'0 0.2
2015-Feb-27 04:29N 35°30' E 139°52'8 8.4
2015-Feb-27 03:33N 35°29' E 139°43'0 0.1
2015-Feb-27 02:33N 35°29' E 139°43'0 0.0
2015-Feb-27 01:33N 35°29' E 139°43'4 4.2
2015-Feb-27 00:33N 35°30' E 139°48'10 8.8
2015-Feb-26 23:25N 35°28' E 139°60'0 0.0
2015-Feb-26 08:09N 35°28' E 139°60'3 0.9
2015-Feb-26 04:16N 35°29' E 139°56'6 8.1
2015-Feb-26 03:33N 35°28' E 139°49'8 8.1
2015-Feb-26 02:33N 35°29' E 139°39'0 0.1
2015-Feb-26 01:34N 35°28' E 139°39'0 0.0
2015-Feb-26 00:34N 35°28' E 139°39'0 0.0
2015-Feb-25 03:09N 35°28' E 139°39'0 0.0
2015-Feb-25 02:33N 35°28' E 139°39'0 0.0
2015-Feb-25 01:33N 35°28' E 139°39'0 0.0
2015-Feb-25 00:33N 35°28' E 139°39'2 2.4
2015-Feb-24 23:33N 35°27' E 139°41'10 9.8
2015-Feb-24 22:30N 35°29' E 139°54'1 0.1
2015-Feb-24 04:31N 35°30' E 139°52'8 7.9
2015-Feb-24 03:34N 35°29' E 139°43'0 0.0
2015-Feb-24 02:33N 35°29' E 139°43'0 0.0
2015-Feb-24 01:33N 35°29' E 139°43'4 3.7
2015-Feb-24 00:33N 35°30' E 139°47'  
Track history (hours):
 
Tides and Currents Weather Stations Pressure Air Temp Water Temp Dewpoint Dewpoint Depression Visibility Wind Speed Wind Dir Waves Ship Positions

Daisinmaru No.11

Last reported at 2015-Mar-04 02:25 UTC. Time now 2015-Mar-04 12:48 UTC.
Position N 35°30' E 139°53'.

Length 52 m; draft 5.2 m.

Type: Cargo ship. MMSI: 431000667.

Date/timePositionNaut miles runAvg speedWind from/ knotsBaromVisibWave heightAir tempDewpointWater temp
2015-Mar-04 02:25N 35°30' E 139°53'8 9.2
2015-Mar-04 01:34N 35°29' E 139°43'0 0.2
2015-Mar-04 00:34N 35°29' E 139°43'0 0.0
2015-Mar-03 23:34N 35°29' E 139°43'2 2.1
2015-Mar-03 22:34N 35°30' E 139°45'1010.4
2015-Mar-03 21:34N 35°29' E 139°58'3 0.1
2015-Mar-02 00:33N 35°29' E 139°54'9 8.8
2015-Mar-01 23:33N 35°27' E 139°44'4 4.2
2015-Mar-01 22:33N 35°28' E 139°39'  
2015-Feb-27 09:08N 35°28' E 139°39'3 5.6
2015-Feb-27 08:33N 35°27' E 139°42'8 7.8
2015-Feb-27 07:30N 35°29' E 139°52'0 0.2
2015-Feb-27 04:29N 35°30' E 139°52'8 8.4
2015-Feb-27 03:33N 35°29' E 139°43'0 0.1
2015-Feb-27 02:33N 35°29' E 139°43'0 0.0
2015-Feb-27 01:33N 35°29' E 139°43'4 4.2
2015-Feb-27 00:33N 35°30' E 139°48'10 8.8
2015-Feb-26 23:25N 35°28' E 139°60'0 0.0
2015-Feb-26 08:09N 35°28' E 139°60'3 0.9
2015-Feb-26 04:16N 35°29' E 139°56'6 8.1
2015-Feb-26 03:33N 35°28' E 139°49'8 8.1
2015-Feb-26 02:33N 35°29' E 139°39'0 0.1
2015-Feb-26 01:34N 35°28' E 139°39'0 0.0
2015-Feb-26 00:34N 35°28' E 139°39'0 0.0
2015-Feb-25 03:09N 35°28' E 139°39'0 0.0
2015-Feb-25 02:33N 35°28' E 139°39'0 0.0
2015-Feb-25 01:33N 35°28' E 139°39'0 0.0
2015-Feb-25 00:33N 35°28' E 139°39'2 2.4
2015-Feb-24 23:33N 35°27' E 139°41'10 9.8
2015-Feb-24 22:30N 35°29' E 139°54'1 0.1
2015-Feb-24 04:31N 35°30' E 139°52'8 7.9
2015-Feb-24 03:34N 35°29' E 139°43'0 0.0
2015-Feb-24 02:33N 35°29' E 139°43'0 0.0
2015-Feb-24 01:33N 35°29' E 139°43'4 3.7
2015-Feb-24 00:33N 35°30' E 139°47'  

Dump ship's entire track history